Flight Track Log - Related Links

Times and Time Zones

All times are in EDT time to prevent confusion due to time zone crossing. See the TCF3534 flight status page for this flight to view local times or setup timezone preferences in your user account.

Time Position Orientation Groundspeed Altitude Reporting Facility
EDT Latitude Longitude Course Direction KTS MPH feet Rate Location/Type
Wed 02:18:08 PM 39.9333 -104.6833 27° Northeast 189 217 7,000  Level Denver TRACON
Wed 02:19:02 PM 39.9833 -104.6500 27° Northeast 253 291 7,900 1,565 Climbing Denver TRACON
Wed 02:20:03 PM 40.0469 -104.5869 37° Northeast 292 336 10,000 1,951 Climbing Denver Center
Wed 02:21:05 PM 40.1306 -104.5319 27° Northeast 335 386 11,900 2,226 Climbing Denver Center
Wed 02:22:00 PM 40.2866 -104.5000 North  Level FlightAware Approximate
Wed 02:22:07 PM 40.2233 -104.4706 27° Northeast 347 399 14,600  Level Denver Center
Wed 02:23:00 PM 40.3810 -104.4071 27° Northeast  Level FlightAware Approximate
Wed 02:23:10 PM 40.3100 -104.4119 27° Northeast 353 406 16,600  Level Denver Center
Wed 02:24:12 PM 40.4100 -104.3472 26° Northeast 369 425 18,400 1,694 Climbing Denver Center
Wed 02:25:14 PM 40.5067 -104.2794 28° Northeast 397 457 20,100 1,694 Climbing Denver Center
Wed 02:26:16 PM 40.6106 -104.1939 32° Northeast 404 465 21,900 1,597 Climbing Denver Center
Wed 02:27:18 PM 40.6958 -104.0858 44° Northeast 424 488 23,400 1,548 Climbing Denver Center
Wed 02:28:20 PM 40.7828 -103.9725 45° Northeast 435 501 25,100 1,355 Climbing Denver Center
Wed 02:29:22 PM 40.8719 -103.8583 44° Northeast 443 510 26,200 1,210 Climbing Denver Center
Wed 02:30:24 PM 40.9622 -103.7400 45° Northeast 455 524 27,600 1,306 Climbing Denver Center
Wed 02:31:26 PM 41.0647 -103.6094 44° Northeast 461 531 28,900 1,016 Climbing Denver Center
Wed 02:32:28 PM 41.1500 -103.4894 47° Northeast 464 534 29,700 919 Climbing Denver Center
Wed 02:33:30 PM 41.2289 -103.3203 58° Northeast 481 554 30,800 629 Climbing Denver Center
Wed 02:34:32 PM 41.2958 -103.1736 59° Northeast 482 555 31,000 96 Climbing Denver Center
Wed 02:35:35 PM 41.3731 -103.0014 59° Northeast 486 559 31,000  Level Denver Center
Wed 02:36:37 PM 41.4406 -102.8519 59° Northeast 490 564 31,000  Level Denver Center
Wed 02:37:39 PM 41.5178 -102.6789 59° Northeast 488 562 31,000  Level Denver Center
Wed 02:38:41 PM 41.5936 -102.5094 59° Northeast 489 563 31,000  Level Denver Center
Wed 02:39:43 PM 41.6592 -102.3589 60° Northeast 489 563 31,000  Level Denver Center
Wed 02:40:45 PM 41.7253 -102.2092 59° Northeast 489 563 31,000  Level Denver Center
Wed 02:41:47 PM 41.8014 -102.0342 60° Northeast 488 562 31,000  Level Denver Center
Wed 02:42:49 PM 41.8664 -101.8844 60° Northeast 487 560 31,000  Level Denver Center
Wed 02:43:51 PM 41.9428 -101.7078 60° Northeast 487 560 31,000  Level Denver Center
Wed 02:44:53 PM 42.0064 -101.5578 60° Northeast 486 559 31,000  Level Denver Center
Wed 02:45:56 PM 42.0814 -101.3839 60° Northeast 484 557 31,000  Level Denver Center
Wed 02:46:58 PM 42.1392 -101.2289 63° Northeast 485 558 31,000  Level Denver Center
Wed 02:48:00 PM 42.1931 -101.0442 68° East 479 551 31,000  Level Denver Center
Wed 02:49:02 PM 42.2389 -100.8825 69° East 479 551 31,000  Level Denver Center
Wed 02:50:04 PM 42.2961 -100.6944 68° East 480 552 31,000  Level Denver Center
Wed 02:51:06 PM 42.3425 -100.5347 69° East 480 552 31,000  Level Denver Center
Wed 02:51:57 PM 42.3822 -100.4006 68° East 480 552 31,000  Level Minneapolis Center
Wed 02:52:59 PM 42.4331 -100.2331 68° East 480 552 31,000  Level Minneapolis Center
Wed 02:54:01 PM 42.4825 -100.0656 68° East 480 552 31,000  Level Minneapolis Center
Wed 02:55:03 PM 42.5428 -99.8639 68° East 480 552 31,000  Level Minneapolis Center
Wed 02:56:06 PM 42.5989 -99.6994 65° Northeast 480 552 31,000  Level Minneapolis Center
Wed 02:57:08 PM 42.6558 -99.5336 65° Northeast 480 552 31,000  Level Minneapolis Center
Wed 02:58:10 PM 42.7156 -99.3728 63° Northeast 480 552 31,000  Level Minneapolis Center
Wed 02:59:12 PM 42.7750 -99.2103 63° Northeast 480 552 31,000  Level Minneapolis Center
Wed 03:00:15 PM 42.8356 -99.0483 63° Northeast 480 552 31,000  Level Minneapolis Center
Wed 03:01:17 PM 42.9072 -98.8636 62° Northeast 479 551 31,000  Level Minneapolis Center
Wed 03:02:19 PM 42.9681 -98.7039 62° Northeast 479 551 31,000  Level Minneapolis Center
Wed 03:03:21 PM 43.0289 -98.5419 63° Northeast 479 551 31,000  Level Minneapolis Center
Wed 03:04:23 PM 43.0925 -98.3825 61° Northeast 479 551 31,000  Level Minneapolis Center
Wed 03:05:25 PM 43.1567 -98.2222 61° Northeast 479 551 31,000  Level Minneapolis Center
Wed 03:06:28 PM 43.2319 -98.0278 62° Northeast 481 554 31,000  Level Minneapolis Center
Wed 03:07:30 PM 43.2958 -97.8675 61° Northeast 481 554 31,000  Level Minneapolis Center
Wed 03:08:32 PM 43.3667 -97.7106 58° Northeast 484 557 31,000  Level Minneapolis Center
Wed 03:09:34 PM 43.4372 -97.5511 59° Northeast 486 559 31,000  Level Minneapolis Center
Wed 03:10:36 PM 43.5069 -97.3922 59° Northeast 487 560 31,000  Level Minneapolis Center
Wed 03:11:38 PM 43.5903 -97.2017 59° Northeast 487 560 31,000  Level Minneapolis Center
Wed 03:12:40 PM 43.6600 -97.0442 58° Northeast 487 560 31,000  Level Minneapolis Center
Wed 03:13:42 PM 43.7289 -96.8850 59° Northeast 486 559 31,000  Level Minneapolis Center
Wed 03:14:44 PM 43.7975 -96.7247 59° Northeast 486 559 31,000  Level Minneapolis Center
Wed 03:15:46 PM 43.8658 -96.5658 59° Northeast 486 559 31,000  Level Minneapolis Center
Wed 03:16:48 PM 43.9336 -96.4058 59° Northeast 486 559 31,000  Level Minneapolis Center
Wed 03:17:50 PM 44.0153 -96.2142 59° Northeast 486 559 31,000 -629 Level Minneapolis Center
Wed 03:18:52 PM 44.0817 -96.0556 60° Northeast 487 560 29,700 -1,210 Descending Minneapolis Center
Wed 03:19:54 PM 44.1461 -95.9011 60° Northeast 479 551 28,500 -1,306 Descending Minneapolis Center
Wed 03:20:56 PM 44.2092 -95.7567 59° Northeast 453 521 27,000 -1,597 Descending Minneapolis Center
Wed 03:21:58 PM 44.2811 -95.5836 60° Northeast 437 503 25,200 -1,597 Descending Minneapolis Center
Wed 03:23:00 PM 44.3381 -95.4450 60° Northeast 420 483 23,700 -1,403 Descending Minneapolis Center
Wed 03:24:02 PM 44.3939 -95.3092 60° Northeast 411 473 22,300 -1,355 Descending Minneapolis Center
Wed 03:25:04 PM 44.4497 -95.1753 60° Northeast 403 464 20,900 -1,403 Descending Minneapolis Center
Wed 03:26:06 PM 44.4914 -95.0347 67° East 399 459 19,400 -1,452 Descending Minneapolis Center
Wed 03:27:08 PM 44.5236 -94.8922 72° East 389 448 17,900 -1,463 Descending Minneapolis Center
Wed 03:28:09 PM 44.5619 -94.7275 72° East 376 433 16,400 -1,268 Descending Minneapolis Center
Wed 03:29:11 PM 44.5886 -94.6089 72° East 365 420 15,300 -1,161 Descending Minneapolis Center
Wed 03:30:13 PM 44.6194 -94.4772 72° East 359 413 14,000 -1,355 Descending Minneapolis Center
Wed 03:31:15 PM 44.6558 -94.3208 72° East 355 409 12,500 -1,355 Descending Minneapolis Center
Wed 03:32:17 PM 44.6850 -94.1928 72° East 350 403 11,200 -726 Descending Minneapolis Center
Wed 03:33:19 PM 44.7131 -94.0678 72° East 339 390 11,000 -484 Descending Minneapolis Center
Wed 03:34:21 PM 44.7400 -93.9464 73° East 322 371 10,200 -1,210 Descending Minneapolis Center
Wed 03:35:23 PM 44.7772 -93.8414 63° Northeast 307 353 8,500 -1,548 Descending Minneapolis Center
Wed 03:36:25 PM 44.8392 -93.7639 42° Northeast 300 345 7,000 -1,065 Descending Minneapolis Center
Wed 03:37:27 PM 44.9003 -93.6850 42° Northeast 299 344 6,300 -1,258 Descending Minneapolis Center
Wed 03:38:29 PM 44.9494 -93.5792 57° Northeast 289 333 4,400 -1,113 Descending Minneapolis Center
Wed 03:39:31 PM 44.9475 -93.4758 91° East 265 305 4,000 -532 Descending Minneapolis Center
Wed 03:40:33 PM 44.9461 -93.3931 91° East 211 243 3,300 -823 Descending Minneapolis Center
Wed 03:41:35 PM 44.9297 -93.3317 111° Southeast 163 188 2,300 -816 Descending Minneapolis Center
Wed 03:42:38 PM 44.9108 -93.2867 121° Southeast 138 159 1,600 -667 Descending Minneapolis Center

Login

Don't have an account? Register now (free) for customized features, flight alerts, and more!